sensor_id;sensor_type;location;lat;lon;timestamp;P1;durP1;ratioP1;P2;durP2;ratioP2
56670;SDS011;42545;50.054;8.306;2022-09-17T00:01:18;2.47;;;0.82;;
56670;SDS011;42545;50.054;8.306;2022-09-17T00:03:47;3.67;;;1.05;;
56670;SDS011;42545;50.054;8.306;2022-09-17T00:06:16;1.27;;;0.65;;
56670;SDS011;42545;50.054;8.306;2022-09-17T00:08:43;2.13;;;0.88;;
56670;SDS011;42545;50.054;8.306;2022-09-17T00:11:11;4.15;;;0.90;;
56670;SDS011;42545;50.054;8.306;2022-09-17T00:13:40;2.17;;;0.90;;
56670;SDS011;42545;50.054;8.306;2022-09-17T00:16:07;1.92;;;0.85;;
56670;SDS011;42545;50.054;8.306;2022-09-17T00:18:36;3.38;;;1.00;;
56670;SDS011;42545;50.054;8.306;2022-09-17T00:21:05;2.35;;;0.90;;
56670;SDS011;42545;50.054;8.306;2022-09-17T00:23:33;1.33;;;1.13;;
56670;SDS011;42545;50.054;8.306;2022-09-17T00:26:03;3.15;;;1.00;;
56670;SDS011;42545;50.054;8.306;2022-09-17T00:28:31;1.25;;;0.70;;
56670;SDS011;42545;50.054;8.306;2022-09-17T00:30:58;1.50;;;0.90;;
56670;SDS011;42545;50.054;8.306;2022-09-17T00:33:25;3.33;;;1.13;;
56670;SDS011;42545;50.054;8.306;2022-09-17T00:35:59;3.10;;;1.23;;
56670;SDS011;42545;50.054;8.306;2022-09-17T00:38:27;4.07;;;1.02;;
56670;SDS011;42545;50.054;8.306;2022-09-17T00:40:54;1.83;;;0.60;;
56670;SDS011;42545;50.054;8.306;2022-09-17T00:43:35;1.90;;;0.80;;
56670;SDS011;42545;50.054;8.306;2022-09-17T00:46:09;3.47;;;1.25;;
56670;SDS011;42545;50.054;8.306;2022-09-17T00:48:43;5.28;;;1.15;;
56670;SDS011;42545;50.054;8.306;2022-09-17T00:51:13;3.88;;;0.90;;
56670;SDS011;42545;50.054;8.306;2022-09-17T00:53:43;1.60;;;0.80;;
56670;SDS011;42545;50.054;8.306;2022-09-17T00:56:13;1.20;;;0.70;;
56670;SDS011;42545;50.054;8.306;2022-09-17T00:58:45;3.53;;;1.10;;
56670;SDS011;42545;50.054;8.306;2022-09-17T01:01:12;4.35;;;1.00;;
56670;SDS011;42545;50.054;8.306;2022-09-17T01:03:39;2.05;;;1.00;;
56670;SDS011;42545;50.054;8.306;2022-09-17T01:06:08;2.50;;;1.05;;
56670;SDS011;42545;50.054;8.306;2022-09-17T01:08:48;4.97;;;1.02;;
56670;SDS011;42545;50.054;8.306;2022-09-17T01:11:30;1.73;;;0.73;;
56670;SDS011;42545;50.054;8.306;2022-09-17T01:14:13;2.60;;;0.90;;
56670;SDS011;42545;50.054;8.306;2022-09-17T01:16:51;1.23;;;1.02;;
56670;SDS011;42545;50.054;8.306;2022-09-17T01:19:39;1.35;;;0.95;;
56670;SDS011;42545;50.054;8.306;2022-09-17T01:22:32;1.92;;;0.90;;
56670;SDS011;42545;50.054;8.306;2022-09-17T01:25:12;5.60;;;1.08;;
56670;SDS011;42545;50.054;8.306;2022-09-17T01:31:00;3.65;;;1.20;;
56670;SDS011;42545;50.054;8.306;2022-09-17T01:33:33;2.10;;;1.10;;
56670;SDS011;42545;50.054;8.306;2022-09-17T01:36:10;4.55;;;1.38;;
56670;SDS011;42545;50.054;8.306;2022-09-17T01:38:50;4.38;;;1.25;;
56670;SDS011;42545;50.054;8.306;2022-09-17T01:41:24;4.22;;;1.17;;
56670;SDS011;42545;50.054;8.306;2022-09-17T01:44:00;3.70;;;1.30;;
56670;SDS011;42545;50.054;8.306;2022-09-17T01:46:34;1.73;;;0.90;;
56670;SDS011;42545;50.054;8.306;2022-09-17T01:49:07;3.58;;;1.58;;
56670;SDS011;42545;50.054;8.306;2022-09-17T01:51:37;2.53;;;1.27;;
56670;SDS011;42545;50.054;8.306;2022-09-17T01:54:09;1.92;;;1.10;;
56670;SDS011;42545;50.054;8.306;2022-09-17T01:56:43;2.10;;;1.02;;
56670;SDS011;42545;50.054;8.306;2022-09-17T01:59:17;5.40;;;1.25;;
56670;SDS011;42545;50.054;8.306;2022-09-17T02:01:52;3.92;;;1.20;;
56670;SDS011;42545;50.054;8.306;2022-09-17T02:04:24;1.42;;;1.13;;
56670;SDS011;42545;50.054;8.306;2022-09-17T02:06:57;2.25;;;1.27;;
56670;SDS011;42545;50.054;8.306;2022-09-17T02:09:29;2.72;;;1.30;;
56670;SDS011;42545;50.054;8.306;2022-09-17T02:12:02;3.70;;;1.20;;
56670;SDS011;42545;50.054;8.306;2022-09-17T02:14:37;3.53;;;1.38;;
56670;SDS011;42545;50.054;8.306;2022-09-17T02:17:11;3.60;;;1.30;;
56670;SDS011;42545;50.054;8.306;2022-09-17T02:19:41;3.17;;;1.40;;
56670;SDS011;42545;50.054;8.306;2022-09-17T02:22:12;3.85;;;1.50;;
56670;SDS011;42545;50.054;8.306;2022-09-17T02:24:48;2.85;;;1.33;;
56670;SDS011;42545;50.054;8.306;2022-09-17T02:27:24;5.05;;;1.65;;
56670;SDS011;42545;50.054;8.306;2022-09-17T02:30:00;2.60;;;1.35;;
56670;SDS011;42545;50.054;8.306;2022-09-17T02:32:29;3.97;;;1.20;;
56670;SDS011;42545;50.054;8.306;2022-09-17T02:34:56;2.55;;;1.15;;
56670;SDS011;42545;50.054;8.306;2022-09-17T02:37:22;2.75;;;1.23;;
56670;SDS011;42545;50.054;8.306;2022-09-17T02:39:50;3.15;;;1.30;;
56670;SDS011;42545;50.054;8.306;2022-09-17T02:42:19;3.33;;;1.27;;
56670;SDS011;42545;50.054;8.306;2022-09-17T02:44:52;3.55;;;1.17;;
56670;SDS011;42545;50.054;8.306;2022-09-17T02:47:47;2.15;;;1.10;;
56670;SDS011;42545;50.054;8.306;2022-09-17T02:50:27;1.27;;;1.10;;
56670;SDS011;42545;50.054;8.306;2022-09-17T02:53:08;1.95;;;1.10;;
56670;SDS011;42545;50.054;8.306;2022-09-17T02:55:49;1.73;;;1.27;;
56670;SDS011;42545;50.054;8.306;2022-09-17T02:58:27;1.92;;;1.20;;
56670;SDS011;42545;50.054;8.306;2022-09-17T03:01:01;3.47;;;1.50;;
56670;SDS011;42545;50.054;8.306;2022-09-17T03:03:35;4.13;;;1.30;;
56670;SDS011;42545;50.054;8.306;2022-09-17T03:06:04;6.22;;;1.58;;
56670;SDS011;42545;50.054;8.306;2022-09-17T03:08:33;5.22;;;1.50;;
56670;SDS011;42545;50.054;8.306;2022-09-17T03:11:04;4.47;;;1.40;;
56670;SDS011;42545;50.054;8.306;2022-09-17T03:13:33;4.10;;;1.52;;
56670;SDS011;42545;50.054;8.306;2022-09-17T03:16:00;1.30;;;0.90;;
56670;SDS011;42545;50.054;8.306;2022-09-17T03:18:27;4.25;;;1.55;;
56670;SDS011;42545;50.054;8.306;2022-09-17T03:20:56;3.10;;;1.33;;
56670;SDS011;42545;50.054;8.306;2022-09-17T03:23:22;3.95;;;1.60;;
56670;SDS011;42545;50.054;8.306;2022-09-17T03:25:50;3.13;;;1.42;;
56670;SDS011;42545;50.054;8.306;2022-09-17T03:28:17;5.18;;;1.38;;
56670;SDS011;42545;50.054;8.306;2022-09-17T03:30:44;4.20;;;1.50;;
56670;SDS011;42545;50.054;8.306;2022-09-17T03:33:11;3.97;;;1.50;;
56670;SDS011;42545;50.054;8.306;2022-09-17T03:35:41;4.18;;;1.48;;
56670;SDS011;42545;50.054;8.306;2022-09-17T03:38:10;4.53;;;1.50;;
56670;SDS011;42545;50.054;8.306;2022-09-17T03:40:37;4.00;;;1.50;;
56670;SDS011;42545;50.054;8.306;2022-09-17T03:43:03;5.53;;;1.50;;
56670;SDS011;42545;50.054;8.306;2022-09-17T03:45:30;9.15;;;1.63;;
56670;SDS011;42545;50.054;8.306;2022-09-17T03:47:57;6.40;;;1.73;;
56670;SDS011;42545;50.054;8.306;2022-09-17T03:50:24;2.65;;;1.30;;
56670;SDS011;42545;50.054;8.306;2022-09-17T03:52:51;4.30;;;1.63;;
56670;SDS011;42545;50.054;8.306;2022-09-17T03:55:19;4.53;;;1.50;;
56670;SDS011;42545;50.054;8.306;2022-09-17T03:57:46;4.68;;;1.45;;
56670;SDS011;42545;50.054;8.306;2022-09-17T04:00:13;5.22;;;1.52;;
56670;SDS011;42545;50.054;8.306;2022-09-17T04:02:41;7.90;;;1.90;;
56670;SDS011;42545;50.054;8.306;2022-09-17T04:05:08;3.35;;;1.30;;
56670;SDS011;42545;50.054;8.306;2022-09-17T04:07:35;4.50;;;1.45;;
56670;SDS011;42545;50.054;8.306;2022-09-17T04:10:02;4.30;;;1.80;;
56670;SDS011;42545;50.054;8.306;2022-09-17T04:12:31;4.95;;;1.35;;
56670;SDS011;42545;50.054;8.306;2022-09-17T04:14:58;3.85;;;1.60;;
56670;SDS011;42545;50.054;8.306;2022-09-17T04:17:25;5.45;;;1.70;;
56670;SDS011;42545;50.054;8.306;2022-09-17T04:19:52;2.45;;;1.50;;
56670;SDS011;42545;50.054;8.306;2022-09-17T04:22:19;4.35;;;1.60;;
56670;SDS011;42545;50.054;8.306;2022-09-17T04:24:45;4.32;;;1.83;;
56670;SDS011;42545;50.054;8.306;2022-09-17T04:27:12;4.85;;;1.63;;
56670;SDS011;42545;50.054;8.306;2022-09-17T04:29:40;4.75;;;1.70;;
56670;SDS011;42545;50.054;8.306;2022-09-17T04:32:08;3.47;;;1.60;;
56670;SDS011;42545;50.054;8.306;2022-09-17T04:34:35;3.15;;;1.33;;
56670;SDS011;42545;50.054;8.306;2022-09-17T04:37:01;6.05;;;1.80;;
56670;SDS011;42545;50.054;8.306;2022-09-17T04:39:28;13.45;;;3.58;;
56670;SDS011;42545;50.054;8.306;2022-09-17T04:41:55;5.65;;;2.13;;
56670;SDS011;42545;50.054;8.306;2022-09-17T04:44:22;3.53;;;1.60;;
56670;SDS011;42545;50.054;8.306;2022-09-17T04:46:50;7.20;;;2.38;;
56670;SDS011;42545;50.054;8.306;2022-09-17T04:49:17;7.80;;;2.30;;
56670;SDS011;42545;50.054;8.306;2022-09-17T04:51:43;4.50;;;1.75;;
56670;SDS011;42545;50.054;8.306;2022-09-17T04:54:10;4.00;;;2.17;;
56670;SDS011;42545;50.054;8.306;2022-09-17T04:56:37;3.65;;;1.50;;
56670;SDS011;42545;50.054;8.306;2022-09-17T04:59:04;5.68;;;2.00;;
56670;SDS011;42545;50.054;8.306;2022-09-17T05:01:30;4.07;;;2.75;;
56670;SDS011;42545;50.054;8.306;2022-09-17T05:03:59;2.42;;;1.60;;
56670;SDS011;42545;50.054;8.306;2022-09-17T05:06:26;2.78;;;1.75;;
56670;SDS011;42545;50.054;8.306;2022-09-17T05:08:53;2.20;;;1.52;;
56670;SDS011;42545;50.054;8.306;2022-09-17T05:11:19;4.05;;;1.70;;
56670;SDS011;42545;50.054;8.306;2022-09-17T05:13:46;3.90;;;1.80;;
56670;SDS011;42545;50.054;8.306;2022-09-17T05:16:13;2.05;;;1.80;;
56670;SDS011;42545;50.054;8.306;2022-09-17T05:18:40;2.13;;;1.40;;
56670;SDS011;42545;50.054;8.306;2022-09-17T05:21:08;3.03;;;1.65;;
56670;SDS011;42545;50.054;8.306;2022-09-17T05:23:35;3.33;;;1.50;;
56670;SDS011;42545;50.054;8.306;2022-09-17T05:26:02;2.92;;;1.63;;
56670;SDS011;42545;50.054;8.306;2022-09-17T05:28:29;6.30;;;1.80;;
56670;SDS011;42545;50.054;8.306;2022-09-17T05:30:57;2.30;;;1.63;;
56670;SDS011;42545;50.054;8.306;2022-09-17T05:33:24;2.83;;;1.70;;
56670;SDS011;42545;50.054;8.306;2022-09-17T05:35:51;3.65;;;1.70;;
56670;SDS011;42545;50.054;8.306;2022-09-17T05:38:20;2.08;;;1.55;;
56670;SDS011;42545;50.054;8.306;2022-09-17T05:40:47;5.78;;;2.15;;
56670;SDS011;42545;50.054;8.306;2022-09-17T05:43:14;5.18;;;1.98;;
56670;SDS011;42545;50.054;8.306;2022-09-17T05:45:41;2.85;;;1.80;;
56670;SDS011;42545;50.054;8.306;2022-09-17T05:48:10;4.47;;;2.05;;
56670;SDS011;42545;50.054;8.306;2022-09-17T05:50:39;9.10;;;2.70;;
56670;SDS011;42545;50.054;8.306;2022-09-17T05:53:07;8.27;;;2.30;;
56670;SDS011;42545;50.054;8.306;2022-09-17T05:55:37;3.72;;;1.85;;
56670;SDS011;42545;50.054;8.306;2022-09-17T05:58:08;5.30;;;2.25;;
56670;SDS011;42545;50.054;8.306;2022-09-17T06:00:36;12.05;;;2.65;;
56670;SDS011;42545;50.054;8.306;2022-09-17T06:03:03;7.63;;;2.42;;
56670;SDS011;42545;50.054;8.306;2022-09-17T06:05:30;4.20;;;1.95;;
56670;SDS011;42545;50.054;8.306;2022-09-17T06:07:57;4.95;;;1.80;;
56670;SDS011;42545;50.054;8.306;2022-09-17T06:10:24;2.45;;;1.60;;
56670;SDS011;42545;50.054;8.306;2022-09-17T06:12:55;4.47;;;2.00;;
56670;SDS011;42545;50.054;8.306;2022-09-17T06:15:22;4.53;;;1.95;;
56670;SDS011;42545;50.054;8.306;2022-09-17T06:17:49;3.60;;;1.60;;
56670;SDS011;42545;50.054;8.306;2022-09-17T06:20:16;6.45;;;2.22;;
56670;SDS011;42545;50.054;8.306;2022-09-17T06:22:43;9.95;;;2.67;;
56670;SDS011;42545;50.054;8.306;2022-09-17T06:25:10;6.47;;;2.33;;
56670;SDS011;42545;50.054;8.306;2022-09-17T06:27:37;5.75;;;2.05;;
56670;SDS011;42545;50.054;8.306;2022-09-17T06:30:06;4.93;;;1.90;;
56670;SDS011;42545;50.054;8.306;2022-09-17T06:32:33;7.55;;;2.53;;
56670;SDS011;42545;50.054;8.306;2022-09-17T06:35:00;6.97;;;2.72;;
56670;SDS011;42545;50.054;8.306;2022-09-17T06:37:27;3.95;;;1.90;;
56670;SDS011;42545;50.054;8.306;2022-09-17T06:39:55;4.20;;;2.13;;
56670;SDS011;42545;50.054;8.306;2022-09-17T06:42:23;4.90;;;1.80;;
56670;SDS011;42545;50.054;8.306;2022-09-17T06:44:50;5.10;;;1.77;;
56670;SDS011;42545;50.054;8.306;2022-09-17T06:47:19;5.20;;;2.00;;
56670;SDS011;42545;50.054;8.306;2022-09-17T06:49:46;9.45;;;2.78;;
56670;SDS011;42545;50.054;8.306;2022-09-17T06:52:13;5.60;;;2.67;;
56670;SDS011;42545;50.054;8.306;2022-09-17T06:54:39;5.38;;;2.10;;
56670;SDS011;42545;50.054;8.306;2022-09-17T06:57:06;8.43;;;2.40;;
56670;SDS011;42545;50.054;8.306;2022-09-17T06:59:33;7.53;;;2.20;;
56670;SDS011;42545;50.054;8.306;2022-09-17T07:02:00;7.35;;;2.55;;
56670;SDS011;42545;50.054;8.306;2022-09-17T07:04:28;4.40;;;1.85;;
56670;SDS011;42545;50.054;8.306;2022-09-17T07:06:55;3.60;;;1.80;;
56670;SDS011;42545;50.054;8.306;2022-09-17T07:09:23;6.78;;;2.03;;
56670;SDS011;42545;50.054;8.306;2022-09-17T07:11:50;6.57;;;2.22;;
56670;SDS011;42545;50.054;8.306;2022-09-17T07:14:17;7.97;;;2.28;;
56670;SDS011;42545;50.054;8.306;2022-09-17T07:16:45;7.28;;;2.15;;
56670;SDS011;42545;50.054;8.306;2022-09-17T07:19:11;7.13;;;1.92;;
56670;SDS011;42545;50.054;8.306;2022-09-17T07:21:39;5.53;;;2.22;;
56670;SDS011;42545;50.054;8.306;2022-09-17T07:24:06;4.85;;;1.83;;
56670;SDS011;42545;50.054;8.306;2022-09-17T07:26:34;9.00;;;2.28;;
56670;SDS011;42545;50.054;8.306;2022-09-17T07:29:01;10.20;;;2.30;;
56670;SDS011;42545;50.054;8.306;2022-09-17T07:31:27;8.73;;;2.78;;
56670;SDS011;42545;50.054;8.306;2022-09-17T07:33:55;5.85;;;2.17;;
56670;SDS011;42545;50.054;8.306;2022-09-17T07:36:23;5.07;;;2.00;;
56670;SDS011;42545;50.054;8.306;2022-09-17T07:38:51;9.43;;;2.63;;
56670;SDS011;42545;50.054;8.306;2022-09-17T07:41:18;10.85;;;2.85;;
56670;SDS011;42545;50.054;8.306;2022-09-17T07:43:45;6.97;;;2.00;;
56670;SDS011;42545;50.054;8.306;2022-09-17T07:46:13;9.15;;;2.17;;
56670;SDS011;42545;50.054;8.306;2022-09-17T07:48:43;9.50;;;2.10;;
56670;SDS011;42545;50.054;8.306;2022-09-17T07:51:13;6.68;;;2.60;;
56670;SDS011;42545;50.054;8.306;2022-09-17T07:53:41;5.85;;;1.55;;
56670;SDS011;42545;50.054;8.306;2022-09-17T07:56:12;9.00;;;1.90;;
56670;SDS011;42545;50.054;8.306;2022-09-17T07:58:38;4.03;;;1.77;;
56670;SDS011;42545;50.054;8.306;2022-09-17T08:01:06;9.60;;;2.42;;
56670;SDS011;42545;50.054;8.306;2022-09-17T08:03:34;2.88;;;1.55;;
56670;SDS011;42545;50.054;8.306;2022-09-17T08:06:01;7.20;;;2.10;;
56670;SDS011;42545;50.054;8.306;2022-09-17T08:08:30;6.57;;;2.27;;
56670;SDS011;42545;50.054;8.306;2022-09-17T08:11:01;9.98;;;2.95;;
56670;SDS011;42545;50.054;8.306;2022-09-17T08:15:59;5.55;;;2.13;;
56670;SDS011;42545;50.054;8.306;2022-09-17T08:18:26;4.57;;;1.83;;
56670;SDS011;42545;50.054;8.306;2022-09-17T08:20:55;5.53;;;1.88;;
56670;SDS011;42545;50.054;8.306;2022-09-17T08:23:23;7.25;;;2.05;;
56670;SDS011;42545;50.054;8.306;2022-09-17T08:25:51;8.77;;;2.40;;
56670;SDS011;42545;50.054;8.306;2022-09-17T08:28:19;7.57;;;1.90;;
56670;SDS011;42545;50.054;8.306;2022-09-17T08:30:47;6.75;;;2.35;;
56670;SDS011;42545;50.054;8.306;2022-09-17T08:33:15;7.35;;;2.35;;
56670;SDS011;42545;50.054;8.306;2022-09-17T08:35:42;4.63;;;2.00;;
56670;SDS011;42545;50.054;8.306;2022-09-17T08:38:17;6.15;;;2.00;;
56670;SDS011;42545;50.054;8.306;2022-09-17T08:40:46;8.50;;;2.00;;
56670;SDS011;42545;50.054;8.306;2022-09-17T08:43:23;9.48;;;2.17;;
56670;SDS011;42545;50.054;8.306;2022-09-17T08:45:53;6.70;;;1.90;;
56670;SDS011;42545;50.054;8.306;2022-09-17T08:48:20;6.63;;;2.00;;
56670;SDS011;42545;50.054;8.306;2022-09-17T08:50:50;6.60;;;2.25;;
56670;SDS011;42545;50.054;8.306;2022-09-17T08:53:20;5.78;;;2.00;;
56670;SDS011;42545;50.054;8.306;2022-09-17T08:55:56;5.72;;;1.95;;
56670;SDS011;42545;50.054;8.306;2022-09-17T08:58:32;5.13;;;1.70;;
56670;SDS011;42545;50.054;8.306;2022-09-17T09:01:13;5.40;;;1.67;;
56670;SDS011;42545;50.054;8.306;2022-09-17T09:03:52;4.93;;;1.80;;
56670;SDS011;42545;50.054;8.306;2022-09-17T09:06:30;6.60;;;1.98;;
56670;SDS011;42545;50.054;8.306;2022-09-17T09:09:02;5.90;;;1.77;;
56670;SDS011;42545;50.054;8.306;2022-09-17T09:11:33;8.85;;;1.90;;
56670;SDS011;42545;50.054;8.306;2022-09-17T09:14:03;5.18;;;1.42;;
56670;SDS011;42545;50.054;8.306;2022-09-17T09:16:38;7.32;;;1.83;;
56670;SDS011;42545;50.054;8.306;2022-09-17T09:19:12;3.78;;;1.30;;
56670;SDS011;42545;50.054;8.306;2022-09-17T09:21:47;6.70;;;1.40;;
56670;SDS011;42545;50.054;8.306;2022-09-17T09:24:24;5.57;;;1.35;;
56670;SDS011;42545;50.054;8.306;2022-09-17T09:26:54;7.72;;;1.17;;
56670;SDS011;42545;50.054;8.306;2022-09-17T09:29:32;3.15;;;1.10;;
56670;SDS011;42545;50.054;8.306;2022-09-17T09:32:12;6.50;;;1.80;;
56670;SDS011;42545;50.054;8.306;2022-09-17T09:34:46;5.10;;;1.30;;
56670;SDS011;42545;50.054;8.306;2022-09-17T09:37:15;4.38;;;1.08;;
56670;SDS011;42545;50.054;8.306;2022-09-17T09:39:49;1.92;;;1.05;;
56670;SDS011;42545;50.054;8.306;2022-09-17T09:44:49;2.42;;;1.00;;
56670;SDS011;42545;50.054;8.306;2022-09-17T09:47:23;1.38;;;0.70;;
56670;SDS011;42545;50.054;8.306;2022-09-17T09:50:02;2.08;;;0.80;;
56670;SDS011;42545;50.054;8.306;2022-09-17T09:52:47;1.98;;;1.00;;
56670;SDS011;42545;50.054;8.306;2022-09-17T09:55:27;3.45;;;1.40;;
56670;SDS011;42545;50.054;8.306;2022-09-17T09:58:21;4.75;;;1.77;;
56670;SDS011;42545;50.054;8.306;2022-09-17T10:00:53;2.72;;;1.20;;
56670;SDS011;42545;50.054;8.306;2022-09-17T10:03:23;4.55;;;1.50;;
56670;SDS011;42545;50.054;8.306;2022-09-17T10:05:52;3.42;;;1.20;;
56670;SDS011;42545;50.054;8.306;2022-09-17T10:08:21;5.18;;;1.70;;
56670;SDS011;42545;50.054;8.306;2022-09-17T10:10:57;5.97;;;1.45;;
56670;SDS011;42545;50.054;8.306;2022-09-17T10:13:25;3.28;;;1.30;;
56670;SDS011;42545;50.054;8.306;2022-09-17T10:15:53;6.00;;;1.40;;
56670;SDS011;42545;50.054;8.306;2022-09-17T10:18:22;2.17;;;1.05;;
56670;SDS011;42545;50.054;8.306;2022-09-17T10:20:51;2.17;;;1.33;;
56670;SDS011;42545;50.054;8.306;2022-09-17T10:23:19;2.75;;;1.40;;
56670;SDS011;42545;50.054;8.306;2022-09-17T10:25:47;3.17;;;1.20;;
56670;SDS011;42545;50.054;8.306;2022-09-17T10:28:28;3.65;;;1.30;;
56670;SDS011;42545;50.054;8.306;2022-09-17T10:30:58;4.43;;;1.40;;
56670;SDS011;42545;50.054;8.306;2022-09-17T10:33:29;6.20;;;1.50;;
56670;SDS011;42545;50.054;8.306;2022-09-17T10:35:59;6.45;;;1.50;;
56670;SDS011;42545;50.054;8.306;2022-09-17T10:38:31;6.22;;;2.60;;
56670;SDS011;42545;50.054;8.306;2022-09-17T10:41:16;4.45;;;1.23;;
56670;SDS011;42545;50.054;8.306;2022-09-17T10:43:45;3.83;;;1.20;;
56670;SDS011;42545;50.054;8.306;2022-09-17T10:46:14;9.43;;;1.50;;
56670;SDS011;42545;50.054;8.306;2022-09-17T10:48:49;8.15;;;1.38;;
56670;SDS011;42545;50.054;8.306;2022-09-17T10:51:23;4.68;;;1.38;;
56670;SDS011;42545;50.054;8.306;2022-09-17T10:53:56;5.00;;;1.42;;
56670;SDS011;42545;50.054;8.306;2022-09-17T10:56:30;3.65;;;1.00;;
56670;SDS011;42545;50.054;8.306;2022-09-17T10:59:04;3.05;;;1.20;;
56670;SDS011;42545;50.054;8.306;2022-09-17T11:01:47;4.82;;;1.48;;
56670;SDS011;42545;50.054;8.306;2022-09-17T11:04:29;2.60;;;0.90;;
56670;SDS011;42545;50.054;8.306;2022-09-17T11:07:21;4.63;;;1.42;;
56670;SDS011;42545;50.054;8.306;2022-09-17T11:09:59;6.60;;;1.88;;
56670;SDS011;42545;50.054;8.306;2022-09-17T11:12:39;4.60;;;1.40;;
56670;SDS011;42545;50.054;8.306;2022-09-17T11:15:29;4.00;;;0.93;;
56670;SDS011;42545;50.054;8.306;2022-09-17T11:18:13;3.92;;;1.10;;
56670;SDS011;42545;50.054;8.306;2022-09-17T11:20:57;4.53;;;0.93;;
56670;SDS011;42545;50.054;8.306;2022-09-17T11:23:43;7.45;;;1.73;;
56670;SDS011;42545;50.054;8.306;2022-09-17T11:26:25;8.98;;;1.00;;
56670;SDS011;42545;50.054;8.306;2022-09-17T11:29:02;1.75;;;0.80;;
56670;SDS011;42545;50.054;8.306;2022-09-17T11:31:46;5.07;;;1.00;;
56670;SDS011;42545;50.054;8.306;2022-09-17T11:34:24;8.60;;;1.42;;
56670;SDS011;42545;50.054;8.306;2022-09-17T11:37:01;3.55;;;0.80;;
56670;SDS011;42545;50.054;8.306;2022-09-17T11:39:36;4.63;;;1.10;;
56670;SDS011;42545;50.054;8.306;2022-09-17T11:42:10;5.30;;;1.73;;
56670;SDS011;42545;50.054;8.306;2022-09-17T11:44:45;4.00;;;1.13;;
56670;SDS011;42545;50.054;8.306;2022-09-17T11:47:15;3.47;;;0.98;;
56670;SDS011;42545;50.054;8.306;2022-09-17T11:49:47;4.97;;;1.08;;
56670;SDS011;42545;50.054;8.306;2022-09-17T11:52:23;3.08;;;0.90;;
56670;SDS011;42545;50.054;8.306;2022-09-17T11:54:54;3.78;;;0.98;;
56670;SDS011;42545;50.054;8.306;2022-09-17T11:57:26;3.08;;;0.90;;
56670;SDS011;42545;50.054;8.306;2022-09-17T11:59:58;2.20;;;0.98;;
56670;SDS011;42545;50.054;8.306;2022-09-17T12:02:32;2.63;;;0.73;;
56670;SDS011;42545;50.054;8.306;2022-09-17T12:07:44;3.47;;;1.17;;
56670;SDS011;42545;50.054;8.306;2022-09-17T12:10:28;3.17;;;1.02;;
56670;SDS011;42545;50.054;8.306;2022-09-17T12:13:04;2.95;;;1.02;;
56670;SDS011;42545;50.054;8.306;2022-09-17T12:15:39;4.30;;;1.00;;
56670;SDS011;42545;50.054;8.306;2022-09-17T12:18:16;4.55;;;1.00;;
56670;SDS011;42545;50.054;8.306;2022-09-17T12:20:51;7.53;;;2.45;;
56670;SDS011;42545;50.054;8.306;2022-09-17T12:23:26;4.00;;;1.00;;
56670;SDS011;42545;50.054;8.306;2022-09-17T12:26:02;3.10;;;0.63;;
56670;SDS011;42545;50.054;8.306;2022-09-17T12:28:43;2.67;;;1.23;;
56670;SDS011;42545;50.054;8.306;2022-09-17T12:31:19;4.15;;;1.25;;
56670;SDS011;42545;50.054;8.306;2022-09-17T12:33:54;2.97;;;0.77;;
56670;SDS011;42545;50.054;8.306;2022-09-17T12:36:30;2.95;;;0.90;;
56670;SDS011;42545;50.054;8.306;2022-09-17T12:39:31;2.55;;;0.70;;
56670;SDS011;42545;50.054;8.306;2022-09-17T12:42:12;5.63;;;0.85;;
56670;SDS011;42545;50.054;8.306;2022-09-17T12:44:53;4.10;;;0.70;;
56670;SDS011;42545;50.054;8.306;2022-09-17T12:47:50;4.22;;;0.93;;
56670;SDS011;42545;50.054;8.306;2022-09-17T12:50:35;3.97;;;0.93;;
56670;SDS011;42545;50.054;8.306;2022-09-17T12:53:12;4.82;;;0.80;;
56670;SDS011;42545;50.054;8.306;2022-09-17T12:55:53;1.92;;;0.80;;
56670;SDS011;42545;50.054;8.306;2022-09-17T12:58:32;2.00;;;0.65;;
56670;SDS011;42545;50.054;8.306;2022-09-17T13:01:12;2.88;;;0.73;;
56670;SDS011;42545;50.054;8.306;2022-09-17T13:03:45;2.22;;;0.80;;
56670;SDS011;42545;50.054;8.306;2022-09-17T13:06:23;3.30;;;0.88;;
56670;SDS011;42545;50.054;8.306;2022-09-17T13:09:10;3.85;;;0.90;;
56670;SDS011;42545;50.054;8.306;2022-09-17T13:12:02;4.20;;;0.98;;
56670;SDS011;42545;50.054;8.306;2022-09-17T13:14:47;3.28;;;0.80;;
56670;SDS011;42545;50.054;8.306;2022-09-17T13:17:25;1.92;;;0.68;;
56670;SDS011;42545;50.054;8.306;2022-09-17T13:19:58;1.75;;;0.63;;
56670;SDS011;42545;50.054;8.306;2022-09-17T13:22:29;1.50;;;0.50;;
56670;SDS011;42545;50.054;8.306;2022-09-17T13:25:03;2.85;;;1.08;;
56670;SDS011;42545;50.054;8.306;2022-09-17T13:27:33;1.63;;;0.50;;
56670;SDS011;42545;50.054;8.306;2022-09-17T13:30:02;4.13;;;0.80;;
56670;SDS011;42545;50.054;8.306;2022-09-17T13:32:44;1.67;;;0.73;;
56670;SDS011;42545;50.054;8.306;2022-09-17T13:38:19;4.13;;;1.00;;
56670;SDS011;42545;50.054;8.306;2022-09-17T13:40:48;1.50;;;0.68;;
56670;SDS011;42545;50.054;8.306;2022-09-17T13:43:17;1.13;;;0.55;;
56670;SDS011;42545;50.054;8.306;2022-09-17T13:46:10;2.55;;;0.50;;
56670;SDS011;42545;50.054;8.306;2022-09-17T13:48:44;3.15;;;0.85;;
56670;SDS011;42545;50.054;8.306;2022-09-17T13:54:13;6.22;;;3.15;;
56670;SDS011;42545;50.054;8.306;2022-09-17T13:56:44;3.65;;;2.70;;
56670;SDS011;42545;50.054;8.306;2022-09-17T13:59:16;3.05;;;1.20;;
56670;SDS011;42545;50.054;8.306;2022-09-17T14:01:59;1.60;;;1.10;;
56670;SDS011;42545;50.054;8.306;2022-09-17T14:04:32;2.10;;;0.77;;
56670;SDS011;42545;50.054;8.306;2022-09-17T14:07:31;2.65;;;1.13;;
56670;SDS011;42545;50.054;8.306;2022-09-17T14:10:00;5.25;;;0.82;;
56670;SDS011;42545;50.054;8.306;2022-09-17T14:12:53;6.28;;;0.80;;
56670;SDS011;42545;50.054;8.306;2022-09-17T14:15:33;3.45;;;0.77;;
56670;SDS011;42545;50.054;8.306;2022-09-17T14:21:09;2.47;;;0.60;;
56670;SDS011;42545;50.054;8.306;2022-09-17T14:23:45;1.20;;;0.60;;
56670;SDS011;42545;50.054;8.306;2022-09-17T14:26:19;2.90;;;0.98;;
56670;SDS011;42545;50.054;8.306;2022-09-17T14:28:59;3.55;;;0.95;;
56670;SDS011;42545;50.054;8.306;2022-09-17T14:31:36;3.60;;;0.80;;
56670;SDS011;42545;50.054;8.306;2022-09-17T14:34:04;3.25;;;0.80;;
56670;SDS011;42545;50.054;8.306;2022-09-17T14:36:36;1.67;;;0.63;;
56670;SDS011;42545;50.054;8.306;2022-09-17T14:39:04;2.83;;;1.10;;
56670;SDS011;42545;50.054;8.306;2022-09-17T14:41:39;1.77;;;0.68;;
56670;SDS011;42545;50.054;8.306;2022-09-17T14:44:27;4.07;;;1.05;;
56670;SDS011;42545;50.054;8.306;2022-09-17T14:47:05;2.85;;;0.80;;
56670;SDS011;42545;50.054;8.306;2022-09-17T14:49:38;1.88;;;0.57;;
56670;SDS011;42545;50.054;8.306;2022-09-17T14:52:18;3.58;;;0.98;;
56670;SDS011;42545;50.054;8.306;2022-09-17T14:55:14;0.65;;;0.55;;
56670;SDS011;42545;50.054;8.306;2022-09-17T14:57:44;2.90;;;0.63;;
56670;SDS011;42545;50.054;8.306;2022-09-17T15:00:16;1.65;;;0.90;;
56670;SDS011;42545;50.054;8.306;2022-09-17T15:02:54;3.40;;;0.80;;
56670;SDS011;42545;50.054;8.306;2022-09-17T15:05:32;0.85;;;0.50;;
56670;SDS011;42545;50.054;8.306;2022-09-17T15:08:04;1.88;;;0.60;;
56670;SDS011;42545;50.054;8.306;2022-09-17T15:10:38;1.42;;;0.55;;
56670;SDS011;42545;50.054;8.306;2022-09-17T15:13:13;7.05;;;0.70;;
56670;SDS011;42545;50.054;8.306;2022-09-17T15:15:49;4.45;;;1.10;;
56670;SDS011;42545;50.054;8.306;2022-09-17T15:18:25;1.42;;;0.80;;
56670;SDS011;42545;50.054;8.306;2022-09-17T15:21:05;3.00;;;1.58;;
56670;SDS011;42545;50.054;8.306;2022-09-17T15:23:44;0.85;;;0.50;;
56670;SDS011;42545;50.054;8.306;2022-09-17T15:26:23;2.45;;;0.80;;
56670;SDS011;42545;50.054;8.306;2022-09-17T15:28:59;2.30;;;1.30;;
56670;SDS011;42545;50.054;8.306;2022-09-17T15:31:33;2.22;;;0.90;;
56670;SDS011;42545;50.054;8.306;2022-09-17T15:36:29;0.75;;;0.50;;
56670;SDS011;42545;50.054;8.306;2022-09-17T15:38:58;1.30;;;0.65;;
56670;SDS011;42545;50.054;8.306;2022-09-17T15:41:27;2.65;;;0.70;;